Time;durP1;ratioP1;P1;durP2;ratioP2;P2;SDS_P1;SDS_P2;PMS_P1;PMS_P2;Temp;Humidity;BMP_temperature;BMP_pressure;BME280_temperature;BME280_humidity;BME280_pressure;Samples;Min_cycle;Max_cycle;Signal;HPM_P1;HPM_P2
2021/01/27 00:02:04;;;;;;;10.60;6.35;;;;;;;;;;5058441;28;20025;-85
2021/01/27 00:04:31;;;;;;;10.30;6.00;;;;;;;;;;5013607;28;20051;-86
2021/01/27 00:06:57;;;;;;;7.90;5.25;;;;;;;;;;5014014;28;20022;-85
2021/01/27 00:09:23;;;;;;;9.13;5.80;;;;;;;;;;5014692;28;20053;-86
2021/01/27 00:11:49;;;;;;;9.95;5.88;;;;;;;;;;5015059;28;20429;-86
2021/01/27 00:14:15;;;;;;;9.32;5.50;;;;;;;;;;5074905;28;20036;-84
2021/01/27 00:16:41;;;;;;;7.93;5.63;;;;;;;;;;5079376;28;20054;-86
2021/01/27 00:19:07;;;;;;;9.98;5.20;;;;;;;;;;5079600;28;20032;-86
2021/01/27 00:21:33;;;;;;;8.07;5.78;;;;;;;;;;5079439;28;20118;-86
2021/01/27 00:23:59;;;;;;;7.47;5.20;;;;;;;;;;5079931;28;20023;-86
2021/01/27 00:26:26;;;;;;;8.13;5.45;;;;;;;;;;5080016;28;20028;-86
2021/01/27 00:28:52;;;;;;;8.32;5.05;;;;;;;;;;5079606;28;20216;-85
2021/01/27 00:31:18;;;;;;;12.82;6.35;;;;;;;;;;5079610;28;20066;-86
2021/01/27 00:33:44;;;;;;;11.95;5.85;;;;;;;;;;5079601;28;20233;-86
2021/01/27 00:36:10;;;;;;;8.85;4.82;;;;;;;;;;5078856;28;20057;-86
2021/01/27 00:38:36;;;;;;;10.35;6.22;;;;;;;;;;5079714;28;20106;-86
2021/01/27 00:41:02;;;;;;;9.80;5.30;;;;;;;;;;5097358;28;20100;-85
2021/01/27 00:43:28;;;;;;;6.90;4.95;;;;;;;;;;5097265;28;20031;-87
2021/01/27 00:45:55;;;;;;;9.73;5.07;;;;;;;;;;5079154;28;20020;-85
2021/01/27 00:48:21;;;;;;;7.72;4.72;;;;;;;;;;5096346;28;20028;-86
2021/01/27 00:50:48;;;;;;;10.65;5.40;;;;;;;;;;5079276;28;20028;-85
2021/01/27 00:53:14;;;;;;;13.00;5.60;;;;;;;;;;5078873;28;20358;-85
2021/01/27 00:55:40;;;;;;;8.73;4.65;;;;;;;;;;5096590;28;20039;-86
2021/01/27 00:58:06;;;;;;;9.57;5.65;;;;;;;;;;5079201;28;20024;-86
2021/01/27 01:00:34;;;;;;;6.88;4.35;;;;;;;;;;5096277;28;20090;-84
2021/01/27 01:03:00;;;;;;;10.43;5.22;;;;;;;;;;5096591;28;20024;-86
2021/01/27 01:05:30;;;;;;;6.80;5.00;;;;;;;;;;5097695;28;20059;-85
2021/01/27 01:07:56;;;;;;;6.78;4.55;;;;;;;;;;5096174;28;20020;-85
2021/01/27 01:10:24;;;;;;;7.32;4.50;;;;;;;;;;5078996;28;20036;-85
2021/01/27 01:12:50;;;;;;;6.20;4.47;;;;;;;;;;5078739;28;20024;-85
2021/01/27 01:15:16;;;;;;;7.18;4.72;;;;;;;;;;5077862;28;20114;-84
2021/01/27 01:17:42;;;;;;;6.15;3.60;;;;;;;;;;5077947;28;20028;-87
2021/01/27 01:20:14;;;;;;;11.77;5.50;;;;;;;;;;5077635;28;20434;-86
2021/01/27 01:22:40;;;;;;;7.68;4.07;;;;;;;;;;5077939;28;20085;-85
2021/01/27 01:25:07;;;;;;;7.35;4.07;;;;;;;;;;5077635;28;20032;-86
2021/01/27 01:27:33;;;;;;;5.38;3.88;;;;;;;;;;5077845;28;20020;-85
2021/01/27 01:29:59;;;;;;;5.47;3.75;;;;;;;;;;5077734;28;20056;-84
2021/01/27 01:32:25;;;;;;;5.25;3.95;;;;;;;;;;5095061;28;20024;-84
2021/01/27 01:34:51;;;;;;;5.65;3.72;;;;;;;;;;5078271;28;20036;-84
2021/01/27 01:37:17;;;;;;;5.30;3.90;;;;;;;;;;5078181;28;20040;-84
2021/01/27 01:39:47;;;;;;;6.78;4.18;;;;;;;;;;5096588;28;20035;-85
2021/01/27 01:42:17;;;;;;;7.88;3.33;;;;;;;;;;5095402;28;20035;-84
2021/01/27 01:44:43;;;;;;;;;;;;;;;;;;5078423;28;20099;-84
2021/01/27 01:47:09;;;;;;;6.18;3.67;;;;;;;;;;5095899;28;20292;-85
2021/01/27 01:49:35;;;;;;;5.35;3.90;;;;;;;;;;5096279;28;20039;-83
2021/01/27 01:52:01;;;;;;;7.85;4.10;;;;;;;;;;5078083;28;20055;-84
2021/01/27 01:54:30;;;;;;;5.43;3.42;;;;;;;;;;5078413;28;20036;-85
2021/01/27 01:56:59;;;;;;;8.77;3.38;;;;;;;;;;5079045;28;20032;-84
2021/01/27 01:59:27;;;;;;;5.03;3.78;;;;;;;;;;5089415;28;20032;-85
2021/01/27 02:01:58;;;;;;;6.80;3.17;;;;;;;;;;5081181;28;20032;-85
2021/01/27 02:04:25;;;;;;;4.57;3.40;;;;;;;;;;5076487;28;20135;-83
2021/01/27 02:06:51;;;;;;;8.10;3.25;;;;;;;;;;5098709;28;20028;-84
2021/01/27 02:09:18;;;;;;;8.35;3.03;;;;;;;;;;5080499;28;20043;-84
2021/01/27 02:12:03;;;;;;;5.53;2.97;;;;;;;;;;5081158;28;20024;-85
2021/01/27 02:14:47;;;;;;;5.60;3.88;;;;;;;;;;5080934;28;20031;-84
2021/01/27 02:17:33;;;;;;;7.28;3.13;;;;;;;;;;5079027;28;20039;-84
2021/01/27 02:20:14;;;;;;;6.70;3.13;;;;;;;;;;5056089;28;20081;-85
2021/01/27 02:22:59;;;;;;;4.65;2.90;;;;;;;;;;5097046;28;20074;-84
2021/01/27 02:25:28;;;;;;;4.65;3.35;;;;;;;;;;5078582;28;20036;-84
2021/01/27 02:27:55;;;;;;;5.32;2.80;;;;;;;;;;5082550;28;20030;-83
2021/01/27 02:30:21;;;;;;;4.82;2.78;;;;;;;;;;5080961;28;20039;-85
2021/01/27 02:32:59;;;;;;;6.85;3.00;;;;;;;;;;5080697;28;20044;-84
2021/01/27 02:35:34;;;;;;;4.15;2.83;;;;;;;;;;5098733;28;20040;-84
2021/01/27 02:38:02;;;;;;;4.57;3.03;;;;;;;;;;5080334;28;20039;-84
2021/01/27 02:40:32;;;;;;;5.18;2.55;;;;;;;;;;5098852;28;20055;-84
2021/01/27 02:43:11;;;;;;;6.22;2.83;;;;;;;;;;5098476;28;20031;-83
2021/01/27 02:45:41;;;;;;;6.47;2.95;;;;;;;;;;5080772;28;20410;-85
2021/01/27 02:48:07;;;;;;;;;;;;;;;;;;5081196;28;20027;-84
2021/01/27 02:50:44;;;;;;;5.70;2.58;;;;;;;;;;5080367;28;19908;-85
2021/01/27 02:53:21;;;;;;;6.72;2.92;;;;;;;;;;5097785;28;20016;-85
2021/01/27 02:55:50;;;;;;;7.20;3.40;;;;;;;;;;5080193;28;20024;-84
2021/01/27 02:58:27;;;;;;;4.55;2.38;;;;;;;;;;5077569;28;20027;-84
2021/01/27 03:01:06;;;;;;;6.63;2.85;;;;;;;;;;5079982;28;20051;-83
2021/01/27 03:03:40;;;;;;;5.65;3.00;;;;;;;;;;5080145;28;20031;-84
2021/01/27 03:06:08;;;;;;;6.75;3.63;;;;;;;;;;5080223;28;20032;-83
2021/01/27 03:08:36;;;;;;;6.22;3.33;;;;;;;;;;5080184;28;20032;-84
2021/01/27 03:11:05;;;;;;;5.75;3.10;;;;;;;;;;5097499;28;20091;-84
2021/01/27 03:13:31;;;;;;;5.90;2.50;;;;;;;;;;5080776;28;20096;-86
2021/01/27 03:15:59;;;;;;;4.75;3.20;;;;;;;;;;5080558;28;20020;-85
2021/01/27 03:18:28;;;;;;;4.13;2.60;;;;;;;;;;5097705;28;20030;-84
2021/01/27 03:20:56;;;;;;;4.22;2.53;;;;;;;;;;5077541;28;20324;-85
2021/01/27 03:23:33;;;;;;;4.00;2.53;;;;;;;;;;5080024;28;20040;-84
2021/01/27 03:26:05;;;;;;;2.88;2.33;;;;;;;;;;5078014;28;20028;-83
2021/01/27 03:28:34;;;;;;;3.67;2.30;;;;;;;;;;5079652;28;20027;-87
2021/01/27 03:31:01;;;;;;;5.25;2.65;;;;;;;;;;5079631;28;20024;-84
2021/01/27 03:33:32;;;;;;;5.63;3.03;;;;;;;;;;5097169;28;20407;-87
2021/01/27 03:36:01;;;;;;;4.55;2.42;;;;;;;;;;5076532;28;20024;-83
2021/01/27 03:38:29;;;;;;;4.05;2.35;;;;;;;;;;5078370;28;20032;-85
2021/01/27 03:41:15;;;;;;;3.25;2.53;;;;;;;;;;5075287;28;20327;-84
2021/01/27 03:43:56;;;;;;;3.47;2.67;;;;;;;;;;5095136;28;20020;-85
2021/01/27 03:46:36;;;;;;;4.85;2.28;;;;;;;;;;5094767;28;20032;-84
2021/01/27 03:49:07;;;;;;;2.83;2.10;;;;;;;;;;5092012;28;20028;-85
2021/01/27 03:51:41;;;;;;;4.20;3.15;;;;;;;;;;5096301;28;20028;-84
2021/01/27 03:54:10;;;;;;;5.13;2.33;;;;;;;;;;5096809;28;20028;-84
2021/01/27 03:56:44;;;;;;;4.05;2.20;;;;;;;;;;5093350;28;20020;-86
2021/01/27 03:59:11;;;;;;;2.72;1.98;;;;;;;;;;5077950;28;20348;-85
2021/01/27 04:01:45;;;;;;;6.00;2.20;;;;;;;;;;5079096;28;20023;-85
2021/01/27 04:04:11;;;;;;;3.15;2.10;;;;;;;;;;5096810;28;20119;-86
2021/01/27 04:06:37;;;;;;;3.97;2.15;;;;;;;;;;5079964;28;20040;-86
2021/01/27 04:09:03;;;;;;;4.55;2.72;;;;;;;;;;5080164;28;20035;-85
2021/01/27 04:11:29;;;;;;;4.97;2.50;;;;;;;;;;5097597;28;20028;-85
2021/01/27 04:13:55;;;;;;;5.90;2.00;;;;;;;;;;5078832;28;20334;-85
2021/01/27 04:16:22;;;;;;;2.95;2.33;;;;;;;;;;5078822;28;20020;-85
2021/01/27 04:18:48;;;;;;;5.28;2.40;;;;;;;;;;5078515;28;20024;-84
2021/01/27 04:21:14;;;;;;;2.22;2.03;;;;;;;;;;5096962;28;20039;-84
2021/01/27 04:23:40;;;;;;;3.83;2.30;;;;;;;;;;5096181;28;20056;-84
2021/01/27 04:26:06;;;;;;;3.38;1.52;;;;;;;;;;5078462;28;20351;-86
2021/01/27 04:28:33;;;;;;;2.58;1.42;;;;;;;;;;5078805;28;20358;-87
2021/01/27 04:30:59;;;;;;;3.30;1.70;;;;;;;;;;5079029;28;20111;-85
2021/01/27 04:33:26;;;;;;;2.25;1.85;;;;;;;;;;5079265;28;20028;-84
2021/01/27 04:35:53;;;;;;;2.33;1.52;;;;;;;;;;5078765;28;20411;-85
2021/01/27 04:38:19;;;;;;;2.63;2.03;;;;;;;;;;5096012;28;20020;-85
2021/01/27 04:40:47;;;;;;;2.58;1.85;;;;;;;;;;5094891;28;20027;-84
2021/01/27 04:43:20;;;;;;;3.08;1.85;;;;;;;;;;5091802;28;20024;-85
2021/01/27 04:45:48;;;;;;;2.85;1.90;;;;;;;;;;5079095;28;20129;-82
2021/01/27 04:48:22;;;;;;;2.25;1.40;;;;;;;;;;5077789;28;20028;-85
2021/01/27 04:51:15;;;;;;;4.07;1.80;;;;;;;;;;5077842;28;20031;-85
2021/01/27 04:53:47;;;;;;;2.58;1.42;;;;;;;;;;5073000;28;20055;-84
2021/01/27 04:56:19;;;;;;;2.13;1.65;;;;;;;;;;5077832;28;20090;-84
2021/01/27 04:58:45;;;;;;;2.17;1.35;;;;;;;;;;5078041;28;20331;-85
2021/01/27 05:01:40;;;;;;;2.50;1.25;;;;;;;;;;5079428;28;20032;-82
2021/01/27 05:04:33;;;;;;;1.75;1.35;;;;;;;;;;5079375;28;20024;-85
2021/01/27 05:07:01;;;;;;;3.75;1.38;;;;;;;;;;5028390;28;20076;-84
2021/01/27 05:09:39;;;;;;;5.07;1.90;;;;;;;;;;5069628;28;20031;-85
2021/01/27 05:12:07;;;;;;;2.65;1.45;;;;;;;;;;5096428;28;20092;-85
2021/01/27 05:14:34;;;;;;;2.05;1.08;;;;;;;;;;5078809;28;20123;-84
2021/01/27 05:17:03;;;;;;;3.00;1.63;;;;;;;;;;5065197;28;20039;-85
2021/01/27 05:19:29;;;;;;;1.52;1.40;;;;;;;;;;5059180;28;20140;-83
2021/01/27 05:21:57;;;;;;;1.85;1.10;;;;;;;;;;5076449;28;20040;-84
2021/01/27 05:24:23;;;;;;;2.33;1.75;;;;;;;;;;5057754;28;20025;-85
2021/01/27 05:26:52;;;;;;;3.70;1.60;;;;;;;;;;5075594;28;20032;-86
2021/01/27 05:29:18;;;;;;;;;;;;;;;;;;5074093;28;20088;-84
2021/01/27 05:32:03;;;;;;;2.47;1.38;;;;;;;;;;5098275;28;19986;-84
2021/01/27 05:34:37;;;;;;;1.42;1.33;;;;;;;;;;5118353;28;20043;-84
2021/01/27 05:37:08;;;;;;;2.90;1.60;;;;;;;;;;5097428;28;20031;-86
2021/01/27 05:39:35;;;;;;;2.80;1.42;;;;;;;;;;5082893;28;20081;-84
2021/01/27 05:42:27;;;;;;;3.17;1.70;;;;;;;;;;5099798;28;20024;-84
2021/01/27 05:44:55;;;;;;;2.72;1.55;;;;;;;;;;5072551;28;20044;-83
2021/01/27 05:47:25;;;;;;;3.83;1.70;;;;;;;;;;5081550;28;20028;-82
2021/01/27 05:49:52;;;;;;;1.95;1.40;;;;;;;;;;5087501;28;20028;-85
2021/01/27 05:52:19;;;;;;;2.83;1.52;;;;;;;;;;5077326;28;20040;-86
2021/01/27 05:54:45;;;;;;;3.38;1.50;;;;;;;;;;5088638;28;20043;-84
2021/01/27 05:57:25;;;;;;;2.08;1.30;;;;;;;;;;5092874;28;20024;-83
2021/01/27 05:59:51;;;;;;;3.30;1.33;;;;;;;;;;5065087;28;20028;-86
2021/01/27 06:02:18;;;;;;;2.00;1.48;;;;;;;;;;5077595;28;20040;-83
2021/01/27 06:04:53;;;;;;;2.30;1.33;;;;;;;;;;5106092;28;20031;-86
2021/01/27 06:07:24;;;;;;;2.40;1.52;;;;;;;;;;5100582;28;20023;-84
2021/01/27 06:09:53;;;;;;;4.10;1.65;;;;;;;;;;5107424;28;20020;-85
2021/01/27 06:12:19;;;;;;;4.40;2.05;;;;;;;;;;5088822;28;20351;-83
2021/01/27 06:14:46;;;;;;;1.75;1.33;;;;;;;;;;5084299;28;20043;-83
2021/01/27 06:17:22;;;;;;;4.78;1.88;;;;;;;;;;5104975;28;20026;-84
2021/01/27 06:19:59;;;;;;;1.55;1.45;;;;;;;;;;5092163;28;20036;-86
2021/01/27 06:22:38;;;;;;;3.25;1.40;;;;;;;;;;5092561;28;20068;-85
2021/01/27 06:25:04;;;;;;;;;;;;;;;;;;5062784;28;20028;-83
2021/01/27 06:27:39;;;;;;;2.85;1.42;;;;;;;;;;5079653;28;19912;-83
2021/01/27 06:30:24;;;;;;;5.47;1.48;;;;;;;;;;5079307;28;20024;-86
2021/01/27 06:33:08;;;;;;;2.40;1.30;;;;;;;;;;5061025;28;20067;-84
2021/01/27 06:35:37;;;;;;;1.58;1.30;;;;;;;;;;5078319;28;20044;-85
2021/01/27 06:38:11;;;;;;;5.93;1.98;;;;;;;;;;5092567;28;20019;-83
2021/01/27 06:40:37;;;;;;;4.10;2.58;;;;;;;;;;5083566;28;20035;-86
2021/01/27 06:43:11;;;;;;;2.05;1.80;;;;;;;;;;5105442;28;20020;-84
2021/01/27 06:45:48;;;;;;;2.60;1.70;;;;;;;;;;5086936;28;20039;-84
2021/01/27 06:48:14;;;;;;;5.32;1.58;;;;;;;;;;5096640;28;20100;-85
2021/01/27 06:51:12;;;;;;;3.03;1.90;;;;;;;;;;5081330;28;20059;-86
2021/01/27 06:53:57;;;;;;;2.42;1.60;;;;;;;;;;4986640;28;20052;-85
2021/01/27 06:56:29;;;;;;;3.05;1.25;;;;;;;;;;5073732;28;20468;-84
2021/01/27 06:59:22;;;;;;;5.30;1.35;;;;;;;;;;5073163;28;20030;-84
2021/01/27 07:02:07;;;;;;;2.92;1.50;;;;;;;;;;5008871;28;20153;-86
2021/01/27 07:04:33;;;;;;;2.72;1.60;;;;;;;;;;5052397;28;20057;-84
2021/01/27 07:07:11;;;;;;;2.15;1.58;;;;;;;;;;5078341;28;20024;-84
2021/01/27 07:09:45;;;;;;;4.55;1.50;;;;;;;;;;5096149;28;20024;-83
2021/01/27 07:12:19;;;;;;;3.10;1.48;;;;;;;;;;5083832;28;20036;-84
2021/01/27 07:15:03;;;;;;;2.20;1.50;;;;;;;;;;5091190;28;20447;-86
2021/01/27 07:17:56;;;;;;;4.78;2.03;;;;;;;;;;5105539;28;20031;-84
2021/01/27 07:20:25;;;;;;;7.30;1.88;;;;;;;;;;5062773;28;20078;-85
2021/01/27 07:23:04;;;;;;;1.83;1.20;;;;;;;;;;5103690;28;20040;-84
2021/01/27 07:25:46;;;;;;;3.55;2.08;;;;;;;;;;5121494;27;20038;-84
2021/01/27 07:28:41;;;;;;;4.32;1.60;;;;;;;;;;5100124;28;20096;-84
2021/01/27 07:31:12;;;;;;;1.50;1.40;;;;;;;;;;5096177;27;20051;-85
2021/01/27 07:33:46;;;;;;;3.38;1.65;;;;;;;;;;5114154;28;20042;-85
2021/01/27 07:36:21;;;;;;;2.95;1.98;;;;;;;;;;5108029;28;20030;-86
2021/01/27 07:38:49;;;;;;;4.28;1.77;;;;;;;;;;5125571;28;20036;-85
2021/01/27 07:41:38;;;;;;;3.17;1.73;;;;;;;;;;5105756;28;20038;-85
2021/01/27 07:44:06;;;;;;;1.93;1.73;;;;;;;;;;5121089;28;20024;-87
2021/01/27 07:46:35;;;;;;;5.13;2.20;;;;;;;;;;5105234;28;20290;-85
2021/01/27 07:49:03;;;;;;;5.68;2.03;;;;;;;;;;5107368;28;20031;-87
2021/01/27 07:51:42;;;;;;;2.30;1.70;;;;;;;;;;5096351;28;20028;-86
2021/01/27 07:54:12;;;;;;;2.15;1.90;;;;;;;;;;5100953;28;20118;-86
2021/01/27 07:56:49;;;;;;;1.50;1.40;;;;;;;;;;5005348;28;20037;-85
2021/01/27 07:59:20;;;;;;;2.40;2.20;;;;;;;;;;5096076;28;20044;-86
2021/01/27 08:02:08;;;;;;;2.28;1.70;;;;;;;;;;5075276;28;20030;-86
2021/01/27 08:04:48;;;;;;;3.78;2.40;;;;;;;;;;5079310;28;20425;-89
2021/01/27 08:07:19;;;;;;;4.10;2.50;;;;;;;;;;5090013;28;20039;-86
2021/01/27 08:09:50;;;;;;;3.38;2.53;;;;;;;;;;5021780;28;20032;-85
2021/01/27 08:12:29;;;;;;;3.22;2.53;;;;;;;;;;5083839;28;20447;-85
2021/01/27 08:14:55;;;;;;;;;;;;;;;;;;5077022;28;20443;-86
2021/01/27 08:17:42;;;;;;;4.47;2.38;;;;;;;;;;5099676;28;19919;-85
2021/01/27 08:20:31;;;;;;;3.35;2.05;;;;;;;;;;5037945;28;20405;-86
2021/01/27 08:23:01;;;;;;;4.10;2.40;;;;;;;;;;5067947;28;20043;-83
2021/01/27 08:25:46;;;;;;;3.05;2.42;;;;;;;;;;5107425;28;20038;-87
2021/01/27 08:28:24;;;;;;;3.30;2.33;;;;;;;;;;5115879;28;20096;-85
2021/01/27 08:31:10;;;;;;;5.05;2.30;;;;;;;;;;5045445;28;20030;-86
2021/01/27 08:33:36;;;;;;;4.88;2.58;;;;;;;;;;5078801;28;20040;-85
2021/01/27 08:36:04;;;;;;;2.80;2.17;;;;;;;;;;5098765;28;20031;-86
2021/01/27 08:38:31;;;;;;;4.32;2.47;;;;;;;;;;5081799;28;20035;-86
2021/01/27 08:40:58;;;;;;;6.38;3.15;;;;;;;;;;5099839;28;20024;-86
2021/01/27 08:43:26;;;;;;;4.03;2.30;;;;;;;;;;5090737;28;20045;-85
2021/01/27 08:45:52;;;;;;;4.18;2.42;;;;;;;;;;5099346;28;20077;-83
2021/01/27 08:48:37;;;;;;;2.88;2.20;;;;;;;;;;5102141;28;20031;-87
2021/01/27 08:51:04;;;;;;;5.40;2.70;;;;;;;;;;5054411;28;20440;-85
2021/01/27 08:53:50;;;;;;;3.70;2.30;;;;;;;;;;5061957;28;20034;-85
2021/01/27 08:56:23;;;;;;;3.13;2.40;;;;;;;;;;5094567;28;20034;-86
2021/01/27 08:59:09;;;;;;;3.78;2.20;;;;;;;;;;5090766;28;20035;-86
2021/01/27 09:01:41;;;;;;;2.85;1.90;;;;;;;;;;5079059;28;20039;-84
2021/01/27 09:04:13;;;;;;;5.47;2.53;;;;;;;;;;5071979;28;20352;-87
2021/01/27 09:06:41;;;;;;;3.22;2.20;;;;;;;;;;5062830;28;20058;-85
2021/01/27 09:09:11;;;;;;;2.55;1.92;;;;;;;;;;5089452;28;20055;-87
2021/01/27 09:11:38;;;;;;;3.50;2.15;;;;;;;;;;5104885;28;20040;-85
2021/01/27 09:14:09;;;;;;;3.38;2.35;;;;;;;;;;5102476;28;20043;-87
2021/01/27 09:16:36;;;;;;;3.05;2.22;;;;;;;;;;5102568;28;20043;-84
2021/01/27 09:19:09;;;;;;;4.10;2.38;;;;;;;;;;5102931;28;20034;-87
2021/01/27 09:21:36;;;;;;;2.47;2.10;;;;;;;;;;5078153;28;20032;-85
2021/01/27 09:24:11;;;;;;;4.03;2.05;;;;;;;;;;5076802;28;20095;-86
2021/01/27 09:26:45;;;;;;;2.35;2.00;;;;;;;;;;5077820;28;20075;-85
2021/01/27 09:29:16;;;;;;;3.35;2.22;;;;;;;;;;5091988;28;20109;-87
2021/01/27 09:31:44;;;;;;;2.55;2.08;;;;;;;;;;5074949;28;20337;-85
2021/01/27 09:34:23;;;;;;;2.60;2.40;;;;;;;;;;5096654;28;20047;-86
2021/01/27 09:36:52;;;;;;;2.83;2.17;;;;;;;;;;5082846;28;20035;-85
2021/01/27 09:39:45;;;;;;;2.53;1.90;;;;;;;;;;5086405;28;20036;-86
2021/01/27 09:42:24;;;;;;;3.20;1.70;;;;;;;;;;5086103;28;20484;-86
2021/01/27 09:44:55;;;;;;;4.97;1.83;;;;;;;;;;5099502;28;20024;-86
2021/01/27 09:47:21;;;;;;;5.57;2.28;;;;;;;;;;5087277;28;20036;-86
2021/01/27 09:49:51;;;;;;;2.30;1.90;;;;;;;;;;5098772;28;20024;-86
2021/01/27 09:52:18;;;;;;;3.35;2.15;;;;;;;;;;5088977;28;20268;-85
2021/01/27 09:54:50;;;;;;;3.95;2.35;;;;;;;;;;5084831;28;20066;-87
2021/01/27 09:57:19;;;;;;;4.38;2.28;;;;;;;;;;5084664;28;20031;-86
2021/01/27 09:59:47;;;;;;;;;;;;;;;;;;5099724;28;20038;-87
2021/01/27 10:02:13;;;;;;;3.20;2.47;;;;;;;;;;5096489;28;19923;-86
2021/01/27 10:04:40;;;;;;;4.15;2.55;;;;;;;;;;5082961;28;20020;-86
2021/01/27 10:07:12;;;;;;;4.10;2.58;;;;;;;;;;5083871;28;20032;-88
2021/01/27 10:10:04;;;;;;;2.72;1.98;;;;;;;;;;5098012;28;20023;-86
2021/01/27 10:12:32;;;;;;;2.45;2.22;;;;;;;;;;5096643;28;20032;-85
2021/01/27 10:15:01;;;;;;;3.60;2.40;;;;;;;;;;5082142;28;20073;-86
2021/01/27 10:17:31;;;;;;;2.60;1.98;;;;;;;;;;5100635;28;20028;-85
2021/01/27 10:20:06;;;;;;;4.95;2.22;;;;;;;;;;5081362;28;20477;-85
2021/01/27 10:22:44;;;;;;;3.22;2.70;;;;;;;;;;5087455;28;20050;-86
2021/01/27 10:25:31;;;;;;;6.32;2.92;;;;;;;;;;5081525;28;20067;-87
2021/01/27 10:28:17;;;;;;;6.97;2.38;;;;;;;;;;5097841;28;20028;-86
2021/01/27 10:30:51;;;;;;;5.05;3.10;;;;;;;;;;5081079;28;20035;-87
2021/01/27 10:33:36;;;;;;;3.67;3.03;;;;;;;;;;5084114;28;20485;-85
2021/01/27 10:36:22;;;;;;;4.00;3.08;;;;;;;;;;5080232;28;20036;-86
2021/01/27 10:38:49;;;;;;;3.92;3.30;;;;;;;;;;5094590;28;20085;-85
2021/01/27 10:41:33;;;;;;;4.88;2.95;;;;;;;;;;5094046;28;20089;-85
2021/01/27 10:44:17;;;;;;;7.95;2.35;;;;;;;;;;5046620;28;20023;-86
2021/01/27 10:46:43;;;;;;;2.92;2.70;;;;;;;;;;5076193;28;20063;-85
2021/01/27 10:49:10;;;;;;;3.78;2.78;;;;;;;;;;5095707;28;20024;-86
2021/01/27 10:51:36;;;;;;;6.95;2.75;;;;;;;;;;5076270;28;20032;-85
2021/01/27 10:54:02;;;;;;;5.72;2.75;;;;;;;;;;5068412;28;20130;-86
2021/01/27 10:56:29;;;;;;;2.53;2.15;;;;;;;;;;5064809;28;20023;-85
2021/01/27 10:58:55;;;;;;;5.75;2.90;;;;;;;;;;5081669;28;20047;-84
2021/01/27 11:01:22;;;;;;;3.92;2.90;;;;;;;;;;5080759;28;20122;-84
2021/01/27 11:03:49;;;;;;;3.15;2.50;;;;;;;;;;5095011;28;20047;-86
2021/01/27 11:06:16;;;;;;;3.10;2.60;;;;;;;;;;5093388;28;20108;-85
2021/01/27 11:08:44;;;;;;;3.05;2.72;;;;;;;;;;5085702;28;20150;-84
2021/01/27 11:11:12;;;;;;;4.43;2.75;;;;;;;;;;5082256;28;20455;-85
2021/01/27 11:13:38;;;;;;;2.53;2.33;;;;;;;;;;5079398;28;20035;-87
2021/01/27 11:16:06;;;;;;;3.45;2.40;;;;;;;;;;5072042;28;20115;-85
2021/01/27 11:18:34;;;;;;;3.33;2.40;;;;;;;;;;5088919;28;20040;-86
2021/01/27 11:21:00;;;;;;;3.42;2.50;;;;;;;;;;5076785;28;20028;-85
2021/01/27 11:23:26;;;;;;;7.03;2.30;;;;;;;;;;5080748;28;20384;-86
2021/01/27 11:25:53;;;;;;;3.33;2.78;;;;;;;;;;5102578;28;20027;-86
2021/01/27 11:28:23;;;;;;;2.65;2.33;;;;;;;;;;5071903;28;20081;-85
2021/01/27 11:30:49;;;;;;;2.72;2.53;;;;;;;;;;5079891;28;20032;-85
2021/01/27 11:33:16;;;;;;;3.03;2.40;;;;;;;;;;5099045;28;20047;-86
2021/01/27 11:35:42;;;;;;;2.70;2.50;;;;;;;;;;5077320;28;20044;-85
2021/01/27 11:38:08;;;;;;;3.67;2.70;;;;;;;;;;5086940;28;20024;-84
2021/01/27 11:40:34;;;;;;;3.10;2.50;;;;;;;;;;5091497;28;20134;-85
2021/01/27 11:43:00;;;;;;;2.50;2.33;;;;;;;;;;5067403;28;20038;-86
2021/01/27 11:45:27;;;;;;;2.33;2.00;;;;;;;;;;5087270;28;20327;-85
2021/01/27 11:47:54;;;;;;;2.95;2.05;;;;;;;;;;5077872;28;20039;-86
2021/01/27 11:50:21;;;;;;;2.60;2.35;;;;;;;;;;5069820;28;20042;-85
2021/01/27 11:52:49;;;;;;;4.20;2.00;;;;;;;;;;5089748;28;20344;-85
2021/01/27 11:55:16;;;;;;;2.35;2.15;;;;;;;;;;5086185;28;20039;-86
2021/01/27 11:57:42;;;;;;;3.63;2.42;;;;;;;;;;5079603;28;20044;-85
2021/01/27 12:00:09;;;;;;;3.13;2.83;;;;;;;;;;5080356;28;20032;-85
2021/01/27 12:02:38;;;;;;;4.20;2.50;;;;;;;;;;5076081;28;20024;-86
2021/01/27 12:05:04;;;;;;;4.47;1.92;;;;;;;;;;5080703;28;20041;-85
2021/01/27 12:07:33;;;;;;;2.40;2.15;;;;;;;;;;5085248;28;20032;-85
2021/01/27 12:09:59;;;;;;;2.25;1.90;;;;;;;;;;5103216;28;20027;-84
2021/01/27 12:12:25;;;;;;;4.45;2.45;;;;;;;;;;5084781;28;20039;-85
2021/01/27 12:14:51;;;;;;;2.50;2.30;;;;;;;;;;5093003;28;20351;-85
2021/01/27 12:17:18;;;;;;;3.80;2.40;;;;;;;;;;5087362;28;20032;-85
2021/01/27 12:19:44;;;;;;;2.67;2.47;;;;;;;;;;5085213;28;20032;-86
2021/01/27 12:22:10;;;;;;;6.72;2.90;;;;;;;;;;5090864;28;20024;-86
2021/01/27 12:24:36;;;;;;;2.28;2.08;;;;;;;;;;5093343;28;20372;-85
2021/01/27 12:27:02;;;;;;;2.30;2.10;;;;;;;;;;5077321;28;20085;-86
2021/01/27 12:29:28;;;;;;;2.70;2.42;;;;;;;;;;5078414;28;20447;-85
2021/01/27 12:31:54;;;;;;;3.45;2.30;;;;;;;;;;5092884;28;20019;-85
2021/01/27 12:34:20;;;;;;;2.47;2.28;;;;;;;;;;5080594;28;20046;-86
2021/01/27 12:36:47;;;;;;;2.38;2.00;;;;;;;;;;5079427;28;20035;-88
2021/01/27 12:39:13;;;;;;;2.30;2.10;;;;;;;;;;5089175;28;20054;-85
2021/01/27 12:41:40;;;;;;;2.95;2.42;;;;;;;;;;5076086;28;20043;-85
2021/01/27 12:44:06;;;;;;;2.92;2.63;;;;;;;;;;5063815;28;20063;-85
2021/01/27 12:46:33;;;;;;;3.22;2.80;;;;;;;;;;5070450;28;20051;-85
2021/01/27 12:48:59;;;;;;;3.65;2.72;;;;;;;;;;5024912;28;20013;-87
2021/01/27 12:51:25;;;;;;;2.38;2.17;;;;;;;;;;5092151;28;20025;-86
2021/01/27 12:53:51;;;;;;;2.92;2.72;;;;;;;;;;5097355;28;20059;-85
2021/01/27 12:56:17;;;;;;;3.20;2.90;;;;;;;;;;5103900;28;20096;-86
2021/01/27 12:58:44;;;;;;;4.43;3.50;;;;;;;;;;5091570;28;20024;-86
2021/01/27 13:01:10;;;;;;;3.30;3.00;;;;;;;;;;5086864;28;20047;-84
2021/01/27 13:03:36;;;;;;;2.65;2.45;;;;;;;;;;5081580;28;20020;-84
2021/01/27 13:06:02;;;;;;;3.78;3.10;;;;;;;;;;5084651;28;20122;-84
2021/01/27 13:08:28;;;;;;;3.58;3.15;;;;;;;;;;5109132;28;20031;-85
2021/01/27 13:10:54;;;;;;;4.10;3.40;;;;;;;;;;5090877;28;20110;-84
2021/01/27 13:13:20;;;;;;;4.93;4.22;;;;;;;;;;5104207;28;20028;-84
2021/01/27 13:15:47;;;;;;;3.08;2.85;;;;;;;;;;5110936;28;20036;-84
2021/01/27 13:18:13;;;;;;;3.80;3.22;;;;;;;;;;5105726;28;20377;-85
2021/01/27 13:20:39;;;;;;;5.07;3.05;;;;;;;;;;5111438;28;20058;-82
2021/01/27 13:23:05;;;;;;;4.90;3.08;;;;;;;;;;5110193;28;20046;-84
2021/01/27 13:25:32;;;;;;;5.28;3.28;;;;;;;;;;5091769;28;20141;-85
2021/01/27 13:27:58;;;;;;;4.28;3.58;;;;;;;;;;5088159;28;20347;-85
2021/01/27 13:30:24;;;;;;;4.10;3.30;;;;;;;;;;5091391;28;20089;-84
2021/01/27 13:32:51;;;;;;;8.45;4.43;;;;;;;;;;5089696;28;20024;-84
2021/01/27 13:35:19;;;;;;;4.00;3.47;;;;;;;;;;5088861;28;20051;-84
2021/01/27 13:37:45;;;;;;;4.28;3.60;;;;;;;;;;5109769;28;20132;-84
2021/01/27 13:40:12;;;;;;;6.65;4.28;;;;;;;;;;5085461;28;20031;-84
2021/01/27 13:42:41;;;;;;;5.07;4.38;;;;;;;;;;5036719;28;20030;-84
2021/01/27 13:45:08;;;;;;;4.78;4.38;;;;;;;;;;5092287;28;20039;-83
2021/01/27 13:47:35;;;;;;;6.35;5.40;;;;;;;;;;5093072;28;20167;-84
2021/01/27 13:50:01;;;;;;;5.72;4.55;;;;;;;;;;5106030;28;20068;-84
2021/01/27 13:52:27;;;;;;;5.53;5.03;;;;;;;;;;5104580;28;20028;-84
2021/01/27 13:54:54;;;;;;;4.75;4.32;;;;;;;;;;5097032;28;20055;-85
2021/01/27 13:57:20;;;;;;;6.03;5.22;;;;;;;;;;5091876;28;20028;-85
2021/01/27 13:59:46;;;;;;;4.90;4.45;;;;;;;;;;5087631;28;20541;-85
2021/01/27 14:02:12;;;;;;;7.20;5.45;;;;;;;;;;5089673;28;20229;-84
2021/01/27 14:04:38;;;;;;;8.75;6.13;;;;;;;;;;5089569;28;20024;-86
2021/01/27 14:07:04;;;;;;;6.60;5.75;;;;;;;;;;5106961;28;20327;-85
2021/01/27 14:09:31;;;;;;;6.55;5.20;;;;;;;;;;5108995;28;20074;-84
2021/01/27 14:11:58;;;;;;;6.10;5.50;;;;;;;;;;5093724;28;20022;-86
2021/01/27 14:14:24;;;;;;;5.95;5.40;;;;;;;;;;5110941;28;20035;-84
2021/01/27 14:16:50;;;;;;;6.85;5.43;;;;;;;;;;5091048;28;20031;-85
2021/01/27 14:19:16;;;;;;;7.32;6.10;;;;;;;;;;5088542;28;20030;-86
2021/01/27 14:21:43;;;;;;;6.68;6.07;;;;;;;;;;5077859;28;20059;-84
2021/01/27 14:24:09;;;;;;;8.52;6.10;;;;;;;;;;5080261;28;20032;-86
2021/01/27 14:26:35;;;;;;;7.80;5.80;;;;;;;;;;5083969;28;20081;-84
2021/01/27 14:29:01;;;;;;;7.53;6.65;;;;;;;;;;5085324;28;20020;-85
2021/01/27 14:31:27;;;;;;;10.88;7.18;;;;;;;;;;5104585;28;20373;-85
2021/01/27 14:33:54;;;;;;;8.25;7.45;;;;;;;;;;5106625;28;20046;-84
2021/01/27 14:36:20;;;;;;;8.80;6.45;;;;;;;;;;5086056;28;20112;-85
2021/01/27 14:38:46;;;;;;;9.77;7.10;;;;;;;;;;5085448;28;20024;-86
2021/01/27 14:41:13;;;;;;;9.15;7.20;;;;;;;;;;5108357;28;20111;-84
2021/01/27 14:43:43;;;;;;;13.25;8.32;;;;;;;;;;5090571;28;20027;-85
2021/01/27 14:46:10;;;;;;;9.00;7.15;;;;;;;;;;5076476;28;20032;-86
2021/01/27 14:48:36;;;;;;;13.65;9.13;;;;;;;;;;5081090;28;20093;-84
2021/01/27 14:51:02;;;;;;;8.90;8.00;;;;;;;;;;5105145;28;20028;-85
2021/01/27 14:53:28;;;;;;;8.73;7.90;;;;;;;;;;5097670;28;20086;-83
2021/01/27 14:55:54;;;;;;;9.35;7.70;;;;;;;;;;5087094;28;20031;-84
2021/01/27 14:58:20;;;;;;;9.15;8.07;;;;;;;;;;5080723;28;20032;-84
2021/01/27 15:00:47;;;;;;;12.93;9.70;;;;;;;;;;5073773;28;20096;-84
2021/01/27 15:03:13;;;;;;;10.18;9.07;;;;;;;;;;5079391;28;20127;-84